Time;durP1;ratioP1;P1;durP2;ratioP2;P2;SDS_P1;SDS_P2;PMS_P1;PMS_P2;Temp;Humidity;BMP_temperature;BMP_pressure;BME280_temperature;BME280_humidity;BME280_pressure;Samples;Min_cycle;Max_cycle;Signal;HPM_P1;HPM_P2
2021/01/18 00:01:25;;;;;;;153.57;49.90;;;;;;;-13.04;78.34;101271.77;1725568;83;21649;-84
2021/01/18 00:03:51;;;;;;;175.13;54.80;;;;;;;-13.04;78.36;101264.92;1698804;83;21579;-85
2021/01/18 00:06:18;;;;;;;153.90;50.83;;;;;;;-13.09;78.35;101262.84;1735260;81;21286;-86
2021/01/18 00:08:45;;;;;;;139.65;48.13;;;;;;;-13.15;78.37;101262.83;1733541;82;21153;-85
2021/01/18 00:11:19;;;;;;;149.35;47.55;;;;;;;-13.18;78.40;101258.98;1733534;82;21196;-85
2021/01/18 00:13:47;;;;;;;142.45;49.80;;;;;;;-13.20;78.41;101251.73;1733850;82;21172;-85
2021/01/18 00:16:15;;;;;;;144.72;47.58;;;;;;;-13.20;78.45;101246.60;1733802;82;21180;-85
2021/01/18 00:18:41;;;;;;;150.57;49.23;;;;;;;-13.17;78.45;101251.73;1733771;82;21278;-84
2021/01/18 00:21:08;;;;;;;151.18;50.12;;;;;;;-13.17;78.41;101245.31;1733538;82;21204;-85
2021/01/18 00:23:41;;;;;;;146.70;50.65;;;;;;;-13.21;78.45;101241.89;1733883;82;21231;-85
2021/01/18 00:26:07;;;;;;;159.93;50.63;;;;;;;-13.24;78.46;101237.20;1733661;82;21143;-86
2021/01/18 00:28:34;;;;;;;152.32;50.90;;;;;;;-13.26;78.45;101231.19;1733299;82;21148;-85
2021/01/18 00:31:01;;;;;;;158.52;52.85;;;;;;;-13.25;78.45;101239.33;1733737;82;21208;-86
2021/01/18 00:33:28;;;;;;;151.78;50.55;;;;;;;-13.27;78.47;101237.20;1733724;82;21132;-85
2021/01/18 00:35:55;;;;;;;169.20;52.93;;;;;;;-13.29;78.47;101233.77;1733747;82;21633;-86
2021/01/18 00:38:21;;;;;;;162.25;53.48;;;;;;;-13.33;78.47;101239.75;1733757;82;21203;-85
2021/01/18 00:40:47;;;;;;;147.90;50.17;;;;;;;-13.36;78.48;101243.17;1733781;82;21188;-85
2021/01/18 00:43:14;;;;;;;169.28;53.70;;;;;;;-13.34;78.49;101240.63;1733673;82;22132;-86
2021/01/18 00:45:40;;;;;;;161.75;55.15;;;;;;;-13.43;78.50;101240.61;1733654;82;21239;-85
2021/01/18 00:48:08;;;;;;;157.10;53.00;;;;;;;-13.46;78.51;101239.33;1733583;82;21191;-85
2021/01/18 00:50:34;;;;;;;172.65;51.80;;;;;;;-13.46;78.51;101244.04;1733255;82;21445;-86
2021/01/18 00:53:01;;;;;;;174.12;56.15;;;;;;;-13.48;78.52;101243.62;1733683;82;21598;-85
2021/01/18 00:55:28;;;;;;;167.53;54.00;;;;;;;-13.46;78.53;101240.61;1733723;82;21208;-85
2021/01/18 00:57:54;;;;;;;174.62;54.27;;;;;;;-13.39;78.54;101239.76;1733737;82;21200;-85
2021/01/18 01:00:28;;;;;;;172.07;56.50;;;;;;;-13.42;78.56;101244.89;1733669;82;21136;-86
2021/01/18 01:02:54;;;;;;;165.50;54.70;;;;;;;-13.44;78.59;101250.47;1733552;82;21200;-85
2021/01/18 01:05:24;;;;;;;161.88;51.83;;;;;;;-13.42;78.60;101256.44;1729564;80;21605;-86
2021/01/18 01:07:53;;;;;;;158.50;51.83;;;;;;;-13.48;78.62;101251.31;1722739;82;21414;-86
2021/01/18 01:10:31;;;;;;;172.62;54.53;;;;;;;-13.48;78.63;101253.87;1723093;82;21132;-86
2021/01/18 01:13:05;;;;;;;173.82;55.55;;;;;;;-13.56;78.63;101251.73;1723005;82;21160;-86
2021/01/18 01:15:32;;;;;;;201.62;62.80;;;;;;;-13.61;78.65;101245.76;1722949;83;21703;-86
2021/01/18 01:17:58;;;;;;;173.17;56.63;;;;;;;-13.67;78.65;101244.45;1722965;82;21145;-86
2021/01/18 01:20:25;;;;;;;199.27;62.60;;;;;;;-13.72;78.66;101238.89;1723047;82;21471;-86
2021/01/18 01:22:52;;;;;;;193.75;59.88;;;;;;;-13.78;78.66;101241.88;1722607;82;21223;-86
2021/01/18 01:25:20;;;;;;;197.15;60.92;;;;;;;-13.76;78.66;101238.48;1722638;82;21184;-86
2021/01/18 01:27:46;;;;;;;201.32;67.00;;;;;;;-13.71;78.66;101227.79;1723203;83;21196;-85
2021/01/18 01:30:15;;;;;;;162.77;50.20;;;;;;;;;;1722844;82;21212;-86
2021/01/18 01:32:43;;;;;;;142.55;48.13;;;;;;;-13.75;78.70;101232.48;1723305;83;22197;-86
2021/01/18 01:35:10;;;;;;;172.95;56.25;;;;;;;-13.78;78.70;101229.06;1722877;82;21180;-86
2021/01/18 01:37:37;;;;;;;161.50;55.28;;;;;;;-13.78;78.73;101232.91;1723088;82;21169;-86
2021/01/18 01:40:07;;;;;;;156.50;52.03;;;;;;;-13.69;78.73;101224.38;1723074;82;21156;-86
2021/01/18 01:42:34;;;;;;;159.18;48.25;;;;;;;-13.65;78.74;101216.70;1722660;82;21160;-86
2021/01/18 01:45:00;;;;;;;159.85;52.78;;;;;;;-13.75;78.73;101218.38;1723148;83;21208;-85
2021/01/18 01:47:30;;;;;;;163.72;54.45;;;;;;;-13.80;78.75;101216.27;1722520;83;21219;-86
2021/01/18 01:49:57;;;;;;;174.55;55.67;;;;;;;-13.87;78.76;101217.11;1723021;82;21201;-85
2021/01/18 01:52:24;;;;;;;178.45;57.60;;;;;;;-13.81;78.77;101223.52;1722702;83;21142;-86
2021/01/18 01:54:55;;;;;;;160.35;51.85;;;;;;;-13.83;78.78;101213.70;1723192;82;21757;-86
2021/01/18 01:57:22;;;;;;;251.15;83.97;;;;;;;-13.83;78.79;101214.98;1722318;82;21228;-86
2021/01/18 01:59:48;;;;;;;156.15;53.38;;;;;;;-13.85;78.82;101219.23;1704174;83;21144;-86
2021/01/18 02:02:14;;;;;;;162.45;52.85;;;;;;;-13.86;78.83;101209.83;1723081;82;21585;-86
2021/01/18 02:04:41;;;;;;;161.35;50.67;;;;;;;-13.87;78.84;101211.98;1722261;83;21176;-86
2021/01/18 02:07:26;;;;;;;142.05;48.35;;;;;;;-13.88;78.86;101210.27;1747136;81;21609;-86
2021/01/18 02:09:55;;;;;;;163.77;51.68;;;;;;;-13.92;78.84;101214.95;1748099;82;22127;-86
2021/01/18 02:12:23;;;;;;;170.47;55.85;;;;;;;-14.00;78.84;101216.64;1748192;82;21165;-86
2021/01/18 02:15:13;;;;;;;169.70;55.10;;;;;;;-13.98;78.85;101222.64;1750320;80;21220;-86
2021/01/18 02:18:19;;;;;;;158.10;52.08;;;;;;;-13.92;78.86;101221.36;1782518;80;21163;-86
2021/01/18 02:21:30;;;;;;;151.50;51.37;;;;;;;-13.87;78.86;101218.39;1782961;80;21629;-86
2021/01/18 02:24:20;;;;;;;165.92;52.00;;;;;;;-13.85;78.86;101214.11;1781515;79;22079;-86
2021/01/18 02:27:24;;;;;;;181.18;57.00;;;;;;;-13.94;78.88;101216.67;1783075;80;21223;-87
2021/01/18 02:30:08;;;;;;;150.62;53.55;;;;;;;-13.86;78.90;101209.83;1783165;80;21605;-86
2021/01/18 02:33:13;;;;;;;171.13;56.02;;;;;;;-13.84;78.89;101215.83;1783253;80;21219;-86
2021/01/18 02:36:02;;;;;;;149.15;49.65;;;;;;;-13.81;78.93;101214.55;1783012;80;21200;-86
2021/01/18 02:39:09;;;;;;;133.72;43.70;;;;;;;-13.73;78.94;101214.13;1751129;80;21150;-86
2021/01/18 02:41:58;;;;;;;153.65;51.45;;;;;;;-13.81;78.97;101200.45;1783191;80;21624;-86
2021/01/18 02:44:26;;;;;;;145.65;49.40;;;;;;;-13.89;78.95;101194.45;1783293;80;21187;-86
2021/01/18 02:46:52;;;;;;;156.35;49.42;;;;;;;-13.84;78.96;101195.74;1783040;80;21187;-86
2021/01/18 02:49:20;;;;;;;144.68;51.42;;;;;;;-13.75;78.97;101194.45;1782995;80;21173;-87
2021/01/18 02:51:49;;;;;;;156.60;50.25;;;;;;;-13.66;78.96;101196.18;1783030;80;21207;-86
2021/01/18 02:54:15;;;;;;;167.28;52.30;;;;;;;-13.62;78.98;101197.89;1783195;80;22264;-85
2021/01/18 02:56:45;;;;;;;140.85;49.53;;;;;;;-13.57;78.97;101196.16;1783028;80;21147;-86
2021/01/18 02:59:12;;;;;;;;;;;;;;;-13.50;79.00;101199.16;1785889;80;21232;-86
2021/01/18 03:02:15;;;;;;;147.37;52.85;;;;;;;-13.45;79.00;101203.87;1782679;80;20269;-86
2021/01/18 03:05:08;;;;;;;154.15;50.90;;;;;;;-13.41;79.01;101199.17;1777749;80;21164;-86
2021/01/18 03:07:49;;;;;;;149.60;51.75;;;;;;;-13.41;79.03;101205.58;1783014;80;21211;-85
2021/01/18 03:10:43;;;;;;;148.80;50.10;;;;;;;-13.49;79.07;101207.28;1782879;80;21179;-86
2021/01/18 03:13:32;;;;;;;138.70;46.73;;;;;;;-13.47;79.12;101200.00;1783156;80;21609;-86
2021/01/18 03:16:06;;;;;;;148.45;49.42;;;;;;;-13.48;79.12;101192.33;1782195;80;21132;-86
2021/01/18 03:18:33;;;;;;;153.82;50.80;;;;;;;-13.67;79.08;101188.05;1782052;79;21213;-86
2021/01/18 03:20:59;;;;;;;164.75;52.00;;;;;;;-13.79;79.09;101188.92;1725829;80;21852;-86
2021/01/18 03:23:27;;;;;;;163.03;52.25;;;;;;;-13.83;79.12;101195.77;1783120;80;21144;-87
2021/01/18 03:25:55;;;;;;;158.10;54.95;;;;;;;-13.81;79.13;101197.02;1782918;80;21196;-87
2021/01/18 03:28:23;;;;;;;156.80;54.23;;;;;;;-13.80;79.15;101198.74;1783107;80;21644;-86
2021/01/18 03:30:50;;;;;;;171.28;54.10;;;;;;;-13.69;79.15;101203.88;1783240;80;21410;-86
2021/01/18 03:33:17;;;;;;;154.50;51.88;;;;;;;-13.69;79.13;101198.75;1783029;80;21183;-85
2021/01/18 03:35:43;;;;;;;153.15;52.75;;;;;;;-13.69;79.14;101196.19;1783062;80;21589;-86
2021/01/18 03:38:09;;;;;;;157.97;55.05;;;;;;;-13.77;79.15;101194.47;1783161;80;21167;-86
2021/01/18 03:40:37;;;;;;;157.50;51.08;;;;;;;-13.81;79.15;101186.77;1782554;80;21131;-86
2021/01/18 03:43:06;;;;;;;161.82;52.48;;;;;;;-13.89;79.14;101189.33;1783173;80;21338;-86
2021/01/18 03:45:35;;;;;;;159.07;52.83;;;;;;;-13.93;79.14;101191.45;1783068;80;21136;-86
2021/01/18 03:48:03;;;;;;;178.42;55.70;;;;;;;-13.96;79.13;101182.48;1749861;80;21196;-86
2021/01/18 03:50:30;;;;;;;173.47;57.17;;;;;;;-13.90;79.13;101185.08;1783249;80;21657;-86
2021/01/18 03:52:56;;;;;;;129.93;46.18;;;;;;;-13.84;79.13;101183.79;1783099;80;21183;-86
2021/01/18 03:55:22;;;;;;;166.57;52.60;;;;;;;-13.82;79.13;101180.79;1782988;80;21192;-86
2021/01/18 03:57:50;;;;;;;165.75;54.20;;;;;;;-13.96;79.10;101181.20;1783082;80;21207;-86
2021/01/18 04:00:19;;;;;;;157.70;52.70;;;;;;;-14.04;79.10;101181.64;1783106;80;21206;-86
2021/01/18 04:02:45;;;;;;;164.97;56.73;;;;;;;-14.06;79.12;101173.51;1782963;80;21191;-85
2021/01/18 04:05:15;;;;;;;163.52;52.40;;;;;;;-14.11;79.10;101176.09;1783114;80;21144;-85
2021/01/18 04:07:41;;;;;;;;;;;;;;;-14.07;79.11;101173.92;1772597;80;21264;-86
2021/01/18 04:10:09;;;;;;;159.57;54.10;;;;;;;-14.08;79.12;101167.12;1722232;82;20555;-86
2021/01/18 04:12:42;;;;;;;165.68;55.67;;;;;;;-14.12;79.10;101165.40;1693492;84;21200;-85
2021/01/18 04:15:10;;;;;;;219.87;63.68;;;;;;;-14.13;79.08;101162.41;1722344;83;21161;-85
2021/01/18 04:17:48;;;;;;;171.15;55.95;;;;;;;-14.20;79.09;101151.72;1722356;83;21180;-86
2021/01/18 04:20:15;;;;;;;165.05;57.25;;;;;;;-14.26;79.07;101148.73;1721339;82;21180;-86
2021/01/18 04:22:49;;;;;;;180.50;57.20;;;;;;;-14.28;79.07;101149.56;1722372;83;21192;-86
2021/01/18 04:25:16;;;;;;;267.87;75.20;;;;;;;-14.23;79.10;101150.02;1721141;83;21601;-85
2021/01/18 04:27:52;;;;;;;234.20;69.85;;;;;;;-14.16;79.08;101148.31;1721905;83;21169;-86
2021/01/18 04:30:20;;;;;;;191.37;60.45;;;;;;;-14.10;79.07;101148.31;1722137;83;21148;-86
2021/01/18 04:32:58;;;;;;;167.15;52.62;;;;;;;-14.06;79.08;101156.86;1722343;83;22037;-86
2021/01/18 04:35:26;;;;;;;185.88;57.58;;;;;;;-14.02;79.09;101156.87;1721946;82;21240;-85
2021/01/18 04:37:53;;;;;;;176.57;59.98;;;;;;;-14.00;79.12;101162.01;1722450;83;21140;-86
2021/01/18 04:40:21;;;;;;;168.20;57.27;;;;;;;-13.90;79.12;101159.45;1703914;83;21645;-86
2021/01/18 04:42:49;;;;;;;186.15;63.95;;;;;;;-13.89;79.10;101153.88;1722365;83;21184;-86
2021/01/18 04:45:18;;;;;;;204.13;69.82;;;;;;;-13.89;79.12;101150.03;1721385;82;21222;-86
2021/01/18 04:47:47;;;;;;;169.77;57.48;;;;;;;-13.85;79.14;101156.45;1722416;82;21168;-86
2021/01/18 04:50:15;;;;;;;176.45;57.00;;;;;;;-13.83;79.15;101160.30;1722364;82;23398;-86
2021/01/18 04:52:51;;;;;;;171.28;60.70;;;;;;;-13.77;79.17;101155.17;1722018;82;21211;-86
2021/01/18 04:55:48;;;;;;;168.20;56.77;;;;;;;-13.77;79.16;101153.47;1722324;83;21165;-85
2021/01/18 04:58:17;;;;;;;155.65;54.53;;;;;;;-13.75;79.15;101155.59;1722323;82;21209;-86
2021/01/18 05:00:51;;;;;;;185.55;59.88;;;;;;;-13.68;79.19;101147.92;1726510;81;28942;-85
2021/01/18 05:03:25;;;;;;;171.28;56.92;;;;;;;-13.60;79.21;101151.30;1722015;83;21132;-86
2021/01/18 05:06:15;;;;;;;155.52;52.38;;;;;;;-13.51;79.23;101148.33;1722102;83;21176;-86
2021/01/18 05:09:20;;;;;;;179.53;56.02;;;;;;;-13.41;79.23;101153.01;1693434;84;21598;-85
2021/01/18 05:11:48;;;;;;;167.37;50.85;;;;;;;-13.29;79.24;101145.27;1693296;84;21215;-86
2021/01/18 05:14:16;;;;;;;190.68;58.33;;;;;;;-13.28;79.26;101140.58;1691486;84;21208;-86
2021/01/18 05:16:48;;;;;;;191.73;62.62;;;;;;;-13.36;79.25;101145.72;1693291;84;21156;-86
2021/01/18 05:19:14;;;;;;;182.65;58.65;;;;;;;-13.34;79.27;101145.73;1721770;83;21160;-86
2021/01/18 05:21:43;;;;;;;172.00;60.55;;;;;;;-13.26;79.29;101144.84;1722315;83;21142;-86
2021/01/18 05:24:10;;;;;;;183.25;57.95;;;;;;;-13.18;79.29;101144.82;1693362;84;22144;-86
2021/01/18 05:26:36;;;;;;;208.45;66.50;;;;;;;-13.12;79.31;101146.08;1727630;83;21208;-86
2021/01/18 05:29:03;;;;;;;198.38;65.55;;;;;;;-13.08;79.32;101141.33;1722250;83;21147;-86
2021/01/18 05:31:33;;;;;;;180.65;58.23;;;;;;;-13.06;79.32;101143.48;1693351;84;21175;-86
2021/01/18 05:34:13;;;;;;;232.22;81.50;;;;;;;-13.20;79.31;101137.57;1727692;82;21152;-85
2021/01/18 05:36:47;;;;;;;183.42;57.60;;;;;;;-13.38;79.29;101130.77;1722418;83;21818;-86
2021/01/18 05:39:27;;;;;;;164.22;56.05;;;;;;;-13.52;79.31;101131.23;1693270;84;21648;-85
2021/01/18 05:41:54;;;;;;;175.80;55.88;;;;;;;-13.65;79.30;101124.41;1727425;82;21175;-86
2021/01/18 05:44:37;;;;;;;167.75;52.05;;;;;;;-13.77;79.29;101126.55;1722299;83;21179;-86
2021/01/18 05:47:05;;;;;;;163.22;54.58;;;;;;;-13.81;79.29;101122.70;1693216;84;21147;-86
2021/01/18 05:49:46;;;;;;;173.22;56.40;;;;;;;-13.83;79.30;101125.28;1727707;82;21928;-86
2021/01/18 05:52:30;;;;;;;143.62;47.20;;;;;;;-13.80;79.29;101116.31;1720895;82;21453;-85
2021/01/18 05:55:29;;;;;;;193.97;65.20;;;;;;;-13.78;79.29;101115.86;1666268;84;21183;-85
2021/01/18 05:57:59;;;;;;;428.08;145.32;;;;;;;-13.80;79.26;101115.02;1693284;84;21172;-85
2021/01/18 06:00:58;;;;;;;286.12;100.58;;;;;;;-13.76;79.28;101114.17;1690196;84;21614;-85
2021/01/18 06:03:30;;;;;;;465.15;154.38;;;;;;;-13.72;79.28;101115.85;1709278;83;21190;-83
2021/01/18 06:05:56;;;;;;;277.98;105.83;;;;;;;-13.63;79.31;101117.56;1709207;83;21710;-83
2021/01/18 06:08:26;;;;;;;317.13;104.55;;;;;;;-13.58;79.31;101117.14;1709434;83;21173;-84
2021/01/18 06:10:54;;;;;;;562.42;177.22;;;;;;;-13.61;79.31;101124.81;1709760;83;21210;-83
2021/01/18 06:13:34;;;;;;;553.12;191.82;;;;;;;-13.54;79.32;101124.41;1709632;83;21194;-84
2021/01/18 06:16:11;;;;;;;234.43;76.42;;;;;;;-13.63;79.30;101126.95;1709808;83;21222;-83
2021/01/18 06:18:40;;;;;;;318.07;100.47;;;;;;;-13.76;79.33;101127.41;1709299;83;21591;-84
2021/01/18 06:21:08;;;;;;;423.45;146.43;;;;;;;-13.94;79.34;101126.99;1736955;81;21583;-84
2021/01/18 06:23:35;;;;;;;279.75;93.67;;;;;;;-14.07;79.33;101120.59;1735762;82;21198;-85
2021/01/18 06:26:01;;;;;;;207.95;74.50;;;;;;;-14.13;79.33;101132.09;1738661;82;21590;-86
2021/01/18 06:28:32;;;;;;;215.10;68.00;;;;;;;-14.14;79.34;101131.23;1735620;82;21312;-85
2021/01/18 06:31:11;;;;;;;202.55;67.17;;;;;;;-14.19;79.35;101135.51;1738829;82;21171;-86
2021/01/18 06:33:42;;;;;;;168.70;58.28;;;;;;;-14.21;79.37;101143.59;1735071;82;21179;-86
2021/01/18 06:36:23;;;;;;;177.10;60.80;;;;;;;-14.24;79.35;101144.45;1739970;81;21154;-86
2021/01/18 06:39:00;;;;;;;189.43;57.60;;;;;;;-14.29;79.33;101144.03;1722690;82;21206;-86
2021/01/18 06:41:36;;;;;;;195.68;61.77;;;;;;;-14.34;79.30;101147.03;1704551;84;21268;-87
2021/01/18 06:44:06;;;;;;;190.00;63.50;;;;;;;-14.37;79.31;101148.31;1751770;80;21662;-86
2021/01/18 06:46:36;;;;;;;181.75;62.38;;;;;;;-14.23;79.30;101143.61;1738368;82;21141;-86
2021/01/18 06:49:06;;;;;;;183.25;62.75;;;;;;;-14.17;79.32;101141.47;1738515;82;21163;-85
2021/01/18 06:51:33;;;;;;;182.22;57.25;;;;;;;-14.11;79.34;101149.19;1753923;81;21135;-85
2021/01/18 06:57:23;;;;;;;172.87;56.60;;;;;;;-13.98;79.37;101156.02;1810484;78;22752;-84
2021/01/18 06:59:52;;;;;;;189.90;57.58;;;;;;;-14.05;79.31;101153.03;1796746;79;21191;-85
2021/01/18 07:02:27;;;;;;;169.60;59.55;;;;;;;-14.10;79.34;101157.70;1796526;79;21275;-84
2021/01/18 07:05:07;;;;;;;192.13;59.15;;;;;;;-14.16;79.34;101161.12;1796556;79;21580;-84
2021/01/18 07:07:36;;;;;;;180.32;60.33;;;;;;;-14.10;79.33;101156.42;1796737;79;21154;-86
2021/01/18 07:10:06;;;;;;;191.15;64.55;;;;;;;-13.96;79.36;101156.86;1796511;79;21144;-85
2021/01/18 07:12:33;;;;;;;260.95;85.90;;;;;;;-13.89;79.35;101162.84;1766626;79;21180;-85
2021/01/18 07:15:07;;;;;;;281.52;91.75;;;;;;;-13.98;79.34;101173.95;1771353;78;21483;-86
2021/01/18 07:17:53;;;;;;;325.62;105.00;;;;;;;-13.97;79.37;101173.11;1785642;79;21663;-85
2021/01/18 07:20:28;;;;;;;426.90;125.18;;;;;;;-13.93;79.38;101176.53;1783359;79;21123;-86
2021/01/18 07:23:15;;;;;;;564.92;181.22;;;;;;;-13.77;79.38;101171.41;1787087;79;21224;-84
2021/01/18 07:25:47;;;;;;;404.18;128.35;;;;;;;-13.78;79.36;101169.69;1765576;79;21203;-85
2021/01/18 07:28:18;;;;;;;339.98;110.05;;;;;;;-13.80;79.41;101173.11;1763404;80;21197;-83
2021/01/18 07:30:44;;;;;;;418.80;132.63;;;;;;;-13.83;79.38;101174.40;1752391;81;21195;-83
2021/01/18 07:33:13;;;;;;;295.23;106.05;;;;;;;-13.79;79.39;101173.09;1751007;81;21164;-85
2021/01/18 07:35:40;;;;;;;249.52;87.60;;;;;;;-13.76;79.39;101170.56;1767901;80;21380;-84
2021/01/18 07:38:16;;;;;;;337.72;108.57;;;;;;;-13.73;79.40;101173.13;1769712;80;21212;-83
2021/01/18 07:41:08;;;;;;;268.88;84.13;;;;;;;-13.64;79.40;101172.67;1765479;80;21180;-83
2021/01/18 07:43:40;;;;;;;327.00;103.75;;;;;;;-13.29;79.34;101173.48;1740695;81;21263;-84
2021/01/18 07:46:31;;;;;;;304.55;100.60;;;;;;;-13.16;79.31;101175.19;1772411;80;21155;-83
2021/01/18 07:48:59;;;;;;;418.10;149.60;;;;;;;-13.13;79.34;101170.05;1761866;80;21175;-83
2021/01/18 07:51:29;;;;;;;334.98;112.28;;;;;;;-13.08;79.35;101164.42;1762727;80;21156;-83
2021/01/18 07:53:56;;;;;;;220.27;79.53;;;;;;;-13.01;79.38;101160.98;1769924;80;21307;-83
2021/01/18 07:56:32;;;;;;;242.45;77.62;;;;;;;-12.93;79.37;101162.25;1746579;80;21231;-82
2021/01/18 07:59:09;;;;;;;228.83;77.10;;;;;;;-12.86;79.41;101162.23;1718181;82;21144;-82
2021/01/18 08:01:39;;;;;;;198.40;63.85;;;;;;;-12.67;79.45;101160.88;1731621;81;21231;-84
2021/01/18 08:04:22;;;;;;;264.85;86.00;;;;;;;-12.55;79.43;101163.37;1735327;81;21104;-83
2021/01/18 08:07:05;;;;;;;191.45;67.80;;;;;;;-12.36;79.43;101171.42;1735745;81;21214;-83
2021/01/18 08:09:33;;;;;;;202.38;66.02;;;;;;;-12.27;79.45;101157.22;1730534;81;21207;-83
2021/01/18 08:12:35;;;;;;;264.68;92.17;;;;;;;-12.26;79.42;101155.08;1737492;81;21155;-83
2021/01/18 08:15:07;;;;;;;229.80;78.90;;;;;;;-12.25;79.43;101155.52;1731055;81;21147;-82
2021/01/18 08:17:34;;;;;;;348.73;113.52;;;;;;;-12.26;79.37;101158.94;1736735;81;21160;-83
2021/01/18 08:20:21;;;;;;;235.72;80.10;;;;;;;-12.26;79.39;101156.37;1710517;82;21202;-84
2021/01/18 08:22:46;;;;;;;201.47;60.55;;;;;;;-12.19;79.42;101160.61;1726127;82;21360;-84
2021/01/18 08:25:13;;;;;;;172.80;59.77;;;;;;;-12.17;79.43;101155.01;1727493;82;21727;-84
2021/01/18 08:27:47;;;;;;;195.92;62.88;;;;;;;-12.10;79.43;101150.25;1734524;81;21195;-85
2021/01/18 08:30:39;;;;;;;211.50;73.12;;;;;;;-12.05;79.41;101156.23;1738522;81;21163;-83
2021/01/18 08:33:17;;;;;;;217.22;71.10;;;;;;;-11.89;79.42;101157.81;1734628;81;21650;-85
2021/01/18 08:35:48;;;;;;;173.53;57.83;;;;;;;-11.67;79.41;101151.61;1716733;82;22158;-84
2021/01/18 08:38:29;;;;;;;202.72;68.25;;;;;;;-11.62;79.41;101149.44;1718245;82;21203;-85
2021/01/18 08:41:10;;;;;;;218.15;74.32;;;;;;;-11.62;79.43;101155.87;1713250;82;21238;-84
2021/01/18 08:43:52;;;;;;;224.32;73.30;;;;;;;-11.56;79.44;101153.23;1709595;82;21242;-84
2021/01/18 08:46:39;;;;;;;209.65;69.45;;;;;;;-11.34;79.46;101155.61;1733197;81;21211;-84
2021/01/18 08:49:23;;;;;;;213.07;74.47;;;;;;;-10.88;79.50;101162.41;1834527;77;22782;-84
2021/01/18 08:51:50;;;;;;;210.53;71.55;;;;;;;-10.51;79.48;101151.64;1805972;78;21649;-83
2021/01/18 08:54:38;;;;;;;194.45;72.00;;;;;;;-10.51;79.48;101151.64;1803253;77;21267;-84
2021/01/18 08:57:23;;;;;;;203.80;75.80;;;;;;;-10.21;79.49;101160.27;1810431;78;21200;-83
2021/01/18 09:00:10;;;;;;;217.55;76.25;;;;;;;-10.04;79.53;101162.13;1777597;80;21975;-83
2021/01/18 09:02:39;;;;;;;203.50;74.32;;;;;;;-9.98;79.52;101137.53;1741066;81;21156;-83
2021/01/18 09:05:13;;;;;;;233.50;78.90;;;;;;;-9.65;79.52;101147.33;1744856;80;21183;-82
2021/01/18 09:07:44;;;;;;;210.28;74.03;;;;;;;-9.42;79.52;101145.63;1742604;81;21311;-83
2021/01/18 09:10:21;;;;;;;221.00;85.75;;;;;;;-9.21;79.55;101140.52;1771156;80;21221;-82
2021/01/18 09:12:48;;;;;;;291.10;100.02;;;;;;;-9.08;79.53;101144.60;1739345;81;21166;-82
2021/01/18 09:15:17;;;;;;;265.95;95.20;;;;;;;-8.90;79.54;101143.40;1748077;81;21217;-81
2021/01/18 09:17:44;;;;;;;277.05;93.42;;;;;;;-8.78;79.49;101141.41;1745567;81;21653;-82
2021/01/18 09:20:11;;;;;;;938.60;350.40;;;;;;;-8.71;79.49;101145.58;1717343;81;21291;-81
2021/01/18 09:22:39;;;;;;;611.35;220.65;;;;;;;-8.62;79.48;101149.25;1746130;81;21693;-81
2021/01/18 09:25:07;;;;;;;409.33;154.10;;;;;;;-8.61;79.56;101134.16;1747045;81;21460;-82
2021/01/18 09:27:34;;;;;;;206.85;81.42;;;;;;;-8.49;79.56;101135.64;1748341;81;21182;-81
2021/01/18 09:30:16;;;;;;;585.48;220.22;;;;;;;-8.34;79.54;101133.18;1745080;81;21171;-82
2021/01/18 09:33:00;;;;;;;716.30;275.40;;;;;;;-8.28;79.56;101127.86;1740938;81;21276;-82
2021/01/18 09:35:29;;;;;;;605.65;224.12;;;;;;;-7.97;79.55;101128.83;1747620;81;21229;-81
2021/01/18 09:37:58;;;;;;;301.13;108.90;;;;;;;-7.80;79.55;101135.75;1745069;81;21773;-82
2021/01/18 09:40:25;;;;;;;242.95;84.65;;;;;;;-7.70;79.52;101134.63;1748413;81;21213;-81
2021/01/18 09:42:56;;;;;;;300.87;107.87;;;;;;;-7.46;79.50;101121.98;1775286;79;21209;-82
2021/01/18 09:45:23;;;;;;;384.02;141.85;;;;;;;-7.29;79.46;101124.98;1756117;81;21221;-82
2021/01/18 09:47:50;;;;;;;275.20;99.13;;;;;;;-7.34;79.41;101126.83;1741349;81;21838;-81
2021/01/18 09:50:18;;;;;;;193.68;77.12;;;;;;;-7.44;79.43;101117.60;1715307;81;21160;-81
2021/01/18 09:52:49;;;;;;;187.55;71.15;;;;;;;-7.54;79.39;101113.55;1746492;81;21444;-81
2021/01/18 09:55:27;;;;;;;283.45;104.03;;;;;;;-7.63;79.41;101115.47;1742672;81;21097;-82
2021/01/18 09:58:07;;;;;;;319.37;129.40;;;;;;;-7.61;79.43;101115.01;1748033;81;21225;-80
2021/01/18 10:00:36;;;;;;;257.60;104.63;;;;;;;-7.53;79.39;101107.48;1729269;81;21140;-82
2021/01/18 10:03:02;;;;;;;170.50;66.17;;;;;;;-7.33;79.36;101106.52;1746429;81;21187;-82
2021/01/18 10:05:34;;;;;;;186.15;74.62;;;;;;;-7.14;79.30;101098.64;1748603;81;21157;-84
2021/01/18 10:08:04;;;;;;;244.60;98.47;;;;;;;-7.04;79.31;101097.53;1743712;81;21184;-81
2021/01/18 10:10:43;;;;;;;159.65;61.35;;;;;;;-7.07;79.29;101088.52;1750584;80;21964;-81
2021/01/18 10:13:17;;;;;;;160.80;60.60;;;;;;;-7.14;79.28;101090.87;1741805;81;21247;-81
2021/01/18 10:15:45;;;;;;;164.03;64.70;;;;;;;-7.28;79.27;101090.42;1740948;80;21125;-83
2021/01/18 10:18:39;;;;;;;162.60;62.60;;;;;;;-7.35;79.26;101092.77;1775667;80;21610;-82
2021/01/18 10:21:06;;;;;;;180.72;69.70;;;;;;;-7.25;79.28;101086.45;1745035;80;21598;-82
2021/01/18 10:23:39;;;;;;;191.28;76.90;;;;;;;-6.99;79.23;101081.83;1743640;81;21253;-81
2021/01/18 10:26:26;;;;;;;169.97;64.50;;;;;;;-6.70;79.21;101085.30;1738745;80;21200;-82
2021/01/18 10:29:02;;;;;;;164.93;63.13;;;;;;;-6.59;79.18;101087.14;1776436;80;21147;-82
2021/01/18 10:31:33;;;;;;;198.23;70.87;;;;;;;-6.47;79.19;101081.19;1755619;81;21176;-81
2021/01/18 10:34:31;;;;;;;239.42;82.25;;;;;;;-6.39;79.18;101074.00;1758632;81;21216;-82
2021/01/18 10:37:13;;;;;;;223.80;74.70;;;;;;;-6.50;79.12;101073.03;1736692;82;21255;-82
2021/01/18 10:39:41;;;;;;;198.55;75.12;;;;;;;-6.58;79.08;101079.73;1754259;81;21191;-82
2021/01/18 10:42:17;;;;;;;205.32;79.85;;;;;;;-6.52;79.09;101076.12;1785101;79;21178;-77
2021/01/18 10:44:55;;;;;;;166.45;65.10;;;;;;;-6.44;79.09;101069.42;1786399;80;21771;-81
2021/01/18 10:47:26;;;;;;;202.10;76.10;;;;;;;-6.39;79.06;101067.07;1786448;80;21151;-81
2021/01/18 10:49:54;;;;;;;232.40;84.62;;;;;;;-6.46;79.06;101069.89;1767831;79;21225;-81
2021/01/18 10:52:41;;;;;;;500.00;176.70;;;;;;;-6.52;79.04;101067.49;1749288;81;21171;-81
2021/01/18 10:55:10;;;;;;;388.23;114.12;;;;;;;-6.49;78.96;101068.25;1775938;80;21641;-80
2021/01/18 10:57:45;;;;;;;243.27;87.37;;;;;;;-6.46;78.93;101062.11;1764818;79;21209;-81
2021/01/18 11:00:16;;;;;;;186.73;68.05;;;;;;;-6.35;78.92;101063.94;1795266;79;21120;-81
2021/01/18 11:02:46;;;;;;;210.17;84.07;;;;;;;-6.13;78.96;101062.38;1761507;81;21207;-81
2021/01/18 11:05:12;;;;;;;165.55;64.42;;;;;;;-6.16;78.94;101059.41;1767912;79;24062;-81
2021/01/18 11:07:40;;;;;;;207.32;78.37;;;;;;;-6.16;78.87;101053.39;1730518;79;21203;-81
2021/01/18 11:10:08;;;;;;;196.63;73.57;;;;;;;-6.07;78.86;101047.89;1742355;79;22315;-81
2021/01/18 11:12:41;;;;;;;227.03;93.03;;;;;;;-6.04;78.84;101038.70;1793373;79;21152;-81
2021/01/18 11:15:11;;;;;;;178.62;71.17;;;;;;;-5.97;78.82;101040.20;1780086;79;21210;-81
2021/01/18 11:17:38;;;;;;;225.18;87.78;;;;;;;-5.79;78.81;101043.46;1746603;81;21168;-81
2021/01/18 11:20:08;;;;;;;184.22;72.42;;;;;;;-5.81;78.80;101039.23;1789148;79;21194;-81
2021/01/18 11:22:35;;;;;;;247.02;101.87;;;;;;;-5.63;78.78;101034.23;1749399;81;21565;-80
2021/01/18 11:25:01;;;;;;;369.85;146.55;;;;;;;-5.45;78.78;101031.94;1791889;79;21147;-80